Bow Island Climate, Alberta

Past 24 Hour Conditions

Date / Time
(MDT)
Conditions Temp
(°F)
Humidity
(%)
Dew Point
(°F)
Wind
(mph)
Pressure
(inches)
Visibility
(miles)
28 March 2015
12:00 N/A 56 51 38 WNW 23 gust 35 N/A N/A
11:00 N/A 57 51 39 W 26 gust 36 N/A N/A
10:00 N/A 55 58 41 W 19 gust 25 N/A N/A
9:00 N/A 55 56 40 WSW 15 N/A N/A
8:00 N/A 53 58 39 WSW 13 gust 20 N/A N/A
7:00 N/A 51 64 39 WSW 6 N/A N/A
6:00 N/A 52 60 39 WSW 9 N/A N/A
5:00 N/A 51 61 38 SW 7 N/A N/A
4:00 N/A 54 52 36 WSW 12 N/A N/A
3:00 N/A 50   61 37 WSW 9 N/A N/A
2:00 N/A 53 57 38 WSW 11 N/A N/A
1:00 N/A 57 54 40 WSW 14 gust 19 N/A N/A
00:00 N/A 57 52 40 WSW 15 gust 21 N/A N/A
27 March 2015
23:00 N/A 59 49 40 WSW 14 gust 20 N/A N/A
22:00 N/A 56 53 39 SSW 7 N/A N/A
21:00 N/A 56 52 38 S 6 N/A N/A
20:00 N/A 56 50 38 SSW 7 N/A N/A
19:00 N/A 58 53 41 SSE 7 N/A N/A
18:00 N/A 65 38 38 calm N/A N/A
17:00 N/A 67   31 35 WNW 11 N/A N/A
16:00 N/A 66 30 34 WNW 10 gust 17 N/A N/A
15:00 N/A 64 34 36 WNW 13 N/A N/A
14:00 N/A 63 38 37 WNW 18 N/A N/A
13:00 N/A 63 39 38 W 16 N/A N/A
12:00 N/A 60 44 39 WNW 16 gust 24 N/A N/A
N/A Not available
↑ Highest temperature
↓ Lowest temperature

If you require additional historical weather information, please visit Climate Data Online.

What we are doing

Date modified: